createdAt,value
2019-02-02T00:02:29.099Z,34.67
2019-02-02T00:04:59.114Z,38.80
2019-02-02T00:07:29.193Z,30.43
2019-02-02T00:09:59.150Z,31.03
2019-02-02T00:12:29.113Z,32.10
2019-02-02T00:14:59.115Z,44.13
2019-02-02T00:17:29.153Z,30.83
2019-02-02T00:19:59.262Z,40.03
2019-02-02T00:22:29.341Z,37.80
2019-02-02T00:24:59.401Z,43.00
2019-02-02T00:27:40.781Z,42.00
2019-02-02T00:30:01.216Z,36.20
2019-02-02T00:32:31.357Z,34.27
2019-02-02T00:35:01.324Z,32.17
2019-02-02T00:37:31.371Z,35.03
2019-02-02T00:40:01.373Z,29.13
2019-02-02T00:42:31.435Z,35.03
2019-02-02T00:45:01.484Z,35.37
2019-02-02T00:47:31.487Z,34.70
2019-02-02T00:50:01.540Z,31.80
2019-02-02T00:52:31.528Z,34.67
2019-02-02T00:55:01.583Z,36.40
2019-02-02T00:57:31.610Z,37.73
2019-02-02T01:00:01.668Z,35.87
2019-02-02T01:02:32.796Z,36.77
2019-02-02T01:05:02.896Z,36.87
2019-02-02T01:07:33.033Z,38.07
2019-02-02T01:10:05.258Z,40.33
2019-02-02T01:12:35.257Z,39.33
2019-02-02T01:15:05.614Z,37.93
2019-02-02T01:17:35.598Z,29.53
2019-02-02T01:20:05.914Z,37.57
2019-02-02T01:22:35.982Z,36.83
2019-02-02T01:25:06.135Z,33.50
2019-02-02T01:27:36.287Z,33.13
2019-02-02T01:30:07.302Z,33.57
2019-02-02T01:32:37.264Z,35.23
2019-02-02T01:35:08.168Z,35.87
2019-02-02T01:37:38.272Z,32.10
2019-02-02T01:40:09.753Z,35.13
2019-02-02T01:42:39.884Z,30.67
2019-02-02T01:45:11.439Z,27.33
2019-02-02T01:47:41.505Z,28.70
2019-02-02T01:50:12.848Z,31.10
2019-02-02T01:52:42.912Z,31.73
2019-02-02T01:55:13.640Z,35.08
2019-02-02T01:57:43.678Z,30.00
2019-02-02T02:00:18.078Z,33.13
2019-02-02T02:02:48.118Z,34.43
2019-02-02T02:05:18.202Z,31.57
2019-02-02T02:07:48.262Z,30.20
2019-02-02T02:10:18.339Z,35.97
2019-02-02T02:12:48.422Z,28.33
2019-02-02T02:15:18.490Z,35.30
2019-02-02T02:17:48.630Z,35.43
2019-02-02T02:20:18.668Z,34.53
2019-02-02T02:22:48.788Z,33.67
2019-02-02T02:25:19.070Z,32.47
2019-02-02T02:27:49.139Z,30.03
2019-02-02T02:30:20.487Z,34.90
2019-02-02T02:32:51.094Z,28.73
2019-02-02T02:35:21.244Z,34.23
2019-02-02T02:37:51.486Z,29.13
2019-02-02T02:40:22.107Z,33.67
2019-02-02T02:42:52.648Z,32.38
2019-02-02T02:45:22.717Z,29.17
2019-02-02T02:47:52.802Z,41.50
2019-02-02T02:50:22.859Z,26.90
2019-02-02T02:52:52.917Z,32.03
2019-02-02T02:55:22.915Z,34.23
2019-02-02T02:57:53.102Z,34.27
2019-02-02T03:00:24.211Z,37.43
2019-02-02T03:02:54.392Z,25.03
2019-02-02T03:05:24.483Z,30.47
2019-02-02T03:07:55.620Z,29.77
2019-02-02T03:10:25.681Z,28.60
2019-02-02T03:12:55.837Z,26.47
2019-02-02T03:15:28.061Z,32.53
2019-02-02T03:17:58.223Z,30.67
2019-02-02T03:20:28.307Z,28.73
2019-02-02T03:23:01.148Z,32.83
2019-02-02T03:25:31.118Z,32.27
2019-02-02T03:28:01.239Z,26.97
2019-02-02T03:30:32.375Z,32.70
2019-02-02T03:33:02.361Z,28.67
2019-02-02T03:35:32.375Z,34.50
2019-02-02T03:38:02.437Z,34.60
2019-02-02T03:40:34.739Z,30.67
2019-02-02T03:43:04.773Z,33.77
2019-02-02T03:45:34.816Z,38.90
2019-02-02T03:48:04.860Z,34.60
2019-02-02T03:50:34.974Z,28.90
2019-02-02T03:53:05.108Z,29.17
2019-02-02T03:55:35.163Z,28.57
2019-02-02T03:58:05.216Z,29.47
2019-02-02T04:00:35.237Z,31.53
2019-02-02T04:03:05.312Z,38.37
2019-02-02T04:05:35.342Z,27.93
2019-02-02T04:08:05.498Z,43.10
2019-02-02T04:10:35.465Z,31.90
2019-02-02T04:13:05.497Z,33.97
2019-02-02T04:15:35.566Z,26.53
2019-02-02T04:18:05.561Z,29.07
2019-02-02T04:20:35.650Z,26.17
2019-02-02T04:23:05.969Z,32.07
2019-02-02T04:25:35.997Z,34.77
2019-02-02T04:28:06.047Z,37.10
2019-02-02T04:30:36.098Z,34.90
2019-02-02T04:33:06.137Z,33.17
2019-02-02T04:35:36.089Z,33.17
2019-02-02T04:38:06.146Z,33.43
2019-02-02T04:40:36.137Z,33.67
2019-02-02T04:43:06.106Z,30.30
2019-02-02T04:45:36.165Z,33.77
2019-02-02T04:48:06.330Z,32.03
2019-02-02T04:50:36.345Z,29.00
2019-02-02T04:53:06.462Z,38.00
2019-02-02T04:55:36.544Z,29.47
2019-02-02T04:58:06.601Z,30.77
2019-02-02T05:00:36.688Z,32.73
2019-02-02T05:03:06.817Z,29.52
2019-02-02T05:05:36.817Z,31.03
2019-02-02T05:08:06.918Z,33.73
2019-02-02T05:10:37.126Z,30.73
2019-02-02T05:13:07.154Z,32.23
2019-02-02T05:15:37.116Z,41.63
2019-02-02T05:18:07.178Z,35.93
2019-02-02T05:20:37.221Z,36.20
2019-02-02T05:23:07.266Z,36.30
2019-02-02T05:25:37.440Z,32.67
2019-02-02T05:28:07.518Z,28.80
2019-02-02T05:30:38.360Z,26.43
2019-02-02T05:33:08.465Z,34.57
2019-02-02T05:35:38.426Z,39.37
2019-02-02T05:38:08.396Z,35.97
2019-02-02T05:40:38.444Z,30.87
2019-02-02T05:43:08.457Z,30.37
2019-02-02T05:45:38.436Z,34.90
2019-02-02T05:48:08.442Z,34.77
2019-02-02T05:50:38.529Z,29.53
2019-02-02T05:53:08.541Z,27.60
2019-02-02T05:55:38.509Z,34.70
2019-02-02T05:58:08.560Z,30.80
2019-02-02T06:00:47.843Z,32.77
2019-02-02T06:03:17.902Z,37.80
2019-02-02T06:05:47.957Z,36.87
2019-02-02T06:08:17.946Z,34.57
2019-02-02T06:10:47.993Z,44.53
2019-02-02T06:13:18.126Z,33.17
2019-02-02T06:15:48.247Z,37.27
2019-02-02T06:18:18.224Z,36.40
2019-02-02T06:20:48.181Z,33.97
2019-02-02T06:23:18.242Z,28.15
2019-02-02T06:25:48.558Z,33.40
2019-02-02T06:28:18.617Z,30.10
2019-02-02T06:30:48.596Z,32.43
2019-02-02T06:33:18.638Z,34.07
2019-02-02T06:35:48.677Z,30.00
2019-02-02T06:38:18.625Z,27.77
2019-02-02T06:40:48.687Z,33.77
2019-02-02T06:43:18.716Z,32.47
2019-02-02T06:45:48.714Z,44.10
2019-02-02T06:48:18.746Z,27.43
2019-02-02T06:50:48.754Z,36.93
2019-02-02T06:53:18.782Z,30.83
2019-02-02T06:55:48.866Z,35.93
2019-02-02T06:58:18.825Z,36.27
2019-02-02T07:00:48.916Z,33.30
2019-02-02T07:03:18.961Z,35.10
2019-02-02T07:05:49.012Z,30.50
2019-02-02T07:08:18.968Z,33.50
2019-02-02T07:10:49.037Z,38.80
2019-02-02T07:13:19.079Z,36.60
2019-02-02T07:15:49.152Z,49.90
2019-02-02T07:18:19.121Z,38.80
2019-02-02T07:20:49.148Z,37.77
2019-02-02T07:23:19.240Z,29.30
2019-02-02T07:25:49.318Z,40.40
2019-02-02T07:28:19.456Z,44.80
2019-02-02T07:30:49.536Z,40.60
2019-02-02T07:33:19.629Z,38.53
2019-02-02T07:35:49.667Z,35.57
2019-02-02T07:38:19.725Z,35.37
2019-02-02T07:40:49.672Z,40.33
2019-02-02T07:43:19.721Z,37.77
2019-02-02T07:45:49.684Z,40.00
2019-02-02T07:48:19.742Z,42.03
2019-02-02T07:50:49.718Z,32.10
2019-02-02T07:53:19.699Z,46.20
2019-02-02T07:55:49.689Z,38.73
2019-02-02T07:58:19.686Z,45.17
2019-02-02T08:00:49.662Z,41.87
2019-02-02T08:03:19.711Z,38.00
2019-02-02T08:05:49.808Z,37.40
2019-02-02T08:08:19.879Z,36.87
2019-02-02T08:10:49.879Z,40.67
2019-02-02T08:13:19.832Z,36.07
2019-02-02T08:15:49.896Z,40.43
2019-02-02T08:18:19.952Z,44.27
2019-02-02T08:20:50.038Z,37.97
2019-02-02T08:23:20.017Z,43.13
2019-02-02T08:25:50.098Z,36.83
2019-02-02T08:28:21.816Z,39.77
2019-02-02T08:30:52.836Z,35.17
2019-02-02T08:33:22.922Z,37.57
2019-02-02T08:35:52.977Z,34.67
2019-02-02T08:38:22.946Z,61.40
2019-02-02T08:40:52.948Z,47.67
2019-02-02T08:43:23.060Z,41.33
2019-02-02T08:45:53.154Z,47.10
2019-02-02T08:48:23.179Z,47.67
2019-02-02T08:50:53.249Z,36.53
2019-02-02T08:53:23.298Z,45.87
2019-02-02T08:55:53.386Z,41.27
2019-02-02T08:58:23.869Z,39.90
2019-02-02T09:01:03.862Z,41.67
2019-02-02T09:03:25.620Z,40.40
2019-02-02T09:05:56.026Z,49.13
2019-02-02T09:08:26.192Z,44.40
2019-02-02T09:10:56.152Z,47.60
2019-02-02T09:13:27.021Z,38.80
2019-02-02T09:16:02.832Z,39.80
2019-02-02T09:18:34.993Z,45.63
2019-02-02T09:21:07.068Z,48.20
2019-02-02T09:23:37.144Z,42.70
2019-02-02T09:26:12.074Z,45.60
2019-02-02T09:28:56.691Z,44.10
2019-02-02T09:31:27.222Z,46.07
2019-02-02T09:33:57.334Z,46.60
2019-02-02T09:36:27.382Z,42.27
2019-02-02T09:38:57.358Z,54.60
2019-02-02T09:41:27.448Z,43.77
2019-02-02T09:43:57.405Z,49.10
2019-02-02T09:46:27.490Z,50.77
2019-02-02T09:48:57.992Z,40.03
2019-02-02T09:51:28.221Z,44.00
2019-02-02T09:53:58.275Z,42.53
2019-02-02T09:56:29.474Z,40.57
2019-02-02T09:58:59.514Z,45.87
2019-02-02T10:01:29.601Z,44.33
2019-02-02T10:03:59.635Z,47.17
2019-02-02T10:06:29.670Z,42.47
2019-02-02T10:08:59.648Z,46.20
2019-02-02T10:11:29.665Z,41.87
2019-02-02T10:13:59.698Z,42.33
2019-02-02T10:16:29.843Z,45.30
2019-02-02T10:18:59.135Z,43.97
2019-02-02T10:21:29.117Z,49.17
2019-02-02T10:23:59.053Z,40.60
2019-02-02T10:26:29.123Z,37.37
2019-02-02T10:28:59.218Z,48.90
2019-02-02T10:31:39.147Z,41.30
2019-02-02T10:34:00.905Z,43.47
2019-02-02T10:36:30.904Z,45.43
2019-02-02T10:39:00.860Z,42.97
2019-02-02T10:41:31.576Z,55.33
2019-02-02T10:44:01.749Z,46.20
2019-02-02T10:46:31.797Z,42.97
2019-02-02T10:49:01.796Z,40.00
2019-02-02T10:51:31.775Z,43.73
2019-02-02T10:54:01.856Z,41.80
2019-02-02T10:56:31.900Z,49.27
2019-02-02T10:59:01.877Z,47.17
2019-02-02T11:01:31.924Z,46.83
2019-02-02T11:04:01.961Z,36.60
2019-02-02T11:06:32.020Z,45.23
2019-02-02T11:09:02.045Z,48.73
2019-02-02T11:11:32.162Z,41.17
2019-02-02T11:14:02.411Z,42.23
2019-02-02T11:16:32.452Z,36.80
2019-02-02T11:19:02.895Z,48.20
2019-02-02T11:21:33.026Z,41.93
2019-02-02T11:24:04.163Z,45.57
2019-02-02T11:26:34.435Z,46.97
2019-02-02T11:29:04.516Z,40.93
2019-02-02T11:31:34.854Z,42.67
2019-02-02T11:34:04.905Z,40.30
2019-02-02T11:36:35.687Z,45.30
2019-02-02T11:39:06.363Z,39.40
2019-02-02T11:41:36.485Z,39.90
2019-02-02T11:44:06.513Z,43.60
2019-02-02T11:46:36.606Z,34.83
2019-02-02T11:49:06.664Z,37.37
2019-02-02T11:51:36.713Z,35.57
2019-02-02T11:54:07.756Z,36.40
2019-02-02T11:56:37.713Z,40.00
2019-02-02T11:59:07.798Z,40.47
2019-02-02T12:01:37.795Z,36.03
2019-02-02T12:04:07.913Z,35.40
2019-02-02T12:06:37.915Z,43.10
2019-02-02T12:09:07.954Z,38.93
2019-02-02T12:11:37.993Z,34.40
2019-02-02T12:14:08.140Z,38.03
2019-02-02T12:16:38.104Z,37.67
2019-02-02T12:19:08.069Z,38.23
2019-02-02T12:21:38.117Z,40.80
2019-02-02T12:24:14.391Z,42.17
2019-02-02T12:26:39.845Z,39.70
2019-02-02T12:29:09.960Z,38.27
2019-02-02T12:31:40.654Z,38.57
2019-02-02T12:34:10.700Z,38.70
2019-02-02T12:36:40.779Z,41.93
2019-02-02T12:39:10.930Z,37.93
2019-02-02T12:41:40.978Z,40.03
2019-02-02T12:44:11.032Z,39.97
2019-02-02T12:46:41.065Z,40.83
2019-02-02T12:49:11.150Z,48.90
2019-02-02T12:51:41.156Z,40.97
2019-02-02T12:54:11.201Z,36.73
2019-02-02T12:56:41.179Z,42.37
2019-02-02T12:59:11.235Z,39.97
2019-02-02T13:01:41.286Z,45.87
2019-02-02T13:04:11.302Z,41.63
2019-02-02T13:06:41.348Z,40.63
2019-02-02T13:09:11.457Z,40.67
2019-02-02T13:11:41.435Z,42.60
2019-02-02T13:14:11.489Z,42.30
2019-02-02T13:16:42.533Z,43.70
2019-02-02T13:19:14.058Z,37.37
2019-02-02T13:21:44.244Z,44.30
2019-02-02T13:24:14.230Z,41.70
2019-02-02T13:26:44.222Z,47.10
2019-02-02T13:29:14.181Z,39.33
2019-02-02T13:31:44.162Z,46.27
2019-02-02T13:34:14.145Z,40.77
2019-02-02T13:36:44.242Z,47.20
2019-02-02T13:39:14.236Z,48.07
2019-02-02T13:41:44.305Z,48.20
2019-02-02T13:44:14.367Z,48.50
2019-02-02T13:46:44.335Z,46.73
2019-02-02T13:49:14.300Z,46.57
2019-02-02T13:51:44.505Z,49.50
2019-02-02T13:54:14.558Z,40.43
2019-02-02T13:56:44.539Z,46.90
2019-02-02T13:59:14.491Z,48.40
2019-02-02T14:01:44.504Z,39.17
2019-02-02T14:04:14.458Z,41.73
2019-02-02T14:06:46.562Z,43.10
2019-02-02T14:09:16.534Z,43.87
2019-02-02T14:11:46.525Z,44.13
2019-02-02T14:14:16.484Z,40.63
2019-02-02T14:16:46.511Z,51.97
2019-02-02T14:19:16.482Z,48.10
2019-02-02T14:21:46.476Z,44.80
2019-02-02T14:24:16.446Z,50.27
2019-02-02T14:26:46.408Z,42.53
2019-02-02T14:29:17.468Z,41.27
2019-02-02T14:31:47.571Z,41.50
2019-02-02T14:34:17.606Z,45.73
2019-02-02T14:36:47.662Z,37.47
2019-02-02T14:39:17.714Z,49.50
2019-02-02T14:41:47.688Z,51.70
2019-02-02T14:44:17.663Z,47.37
2019-02-02T14:46:47.633Z,51.10
2019-02-02T14:49:17.698Z,53.40
2019-02-02T14:51:47.751Z,49.63
2019-02-02T14:54:17.711Z,50.13
2019-02-02T14:56:48.475Z,54.30
2019-02-02T14:59:18.543Z,51.10
2019-02-02T15:01:48.514Z,51.90
2019-02-02T15:04:18.471Z,50.27
2019-02-02T15:06:48.476Z,49.63
2019-02-02T15:09:18.466Z,51.00
2019-02-02T15:11:48.514Z,53.13
2019-02-02T15:14:18.491Z,51.03
2019-02-02T15:16:48.541Z,50.00
2019-02-02T15:19:18.549Z,51.60
2019-02-02T15:21:48.512Z,50.90
2019-02-02T15:24:18.486Z,52.23
2019-02-02T15:26:48.441Z,50.40
2019-02-02T15:29:18.512Z,53.23
2019-02-02T15:31:48.575Z,50.53
2019-02-02T15:34:18.570Z,45.60
2019-02-02T15:36:48.620Z,47.23
2019-02-02T15:39:18.642Z,45.50
2019-02-02T15:41:53.007Z,46.80
2019-02-02T15:44:20.272Z,54.90
2019-02-02T15:46:50.267Z,53.60
2019-02-02T15:49:20.274Z,48.90
2019-02-02T15:51:50.318Z,50.70
2019-02-02T15:54:20.285Z,49.67
2019-02-02T15:56:50.241Z,50.53
2019-02-02T15:59:20.207Z,48.37
2019-02-02T16:01:50.184Z,55.03
2019-02-02T16:04:20.295Z,52.77
2019-02-02T16:06:50.278Z,52.03
2019-02-02T16:09:20.359Z,49.57
2019-02-02T16:11:50.365Z,52.30
2019-02-02T16:14:20.332Z,48.83
2019-02-02T16:16:50.293Z,53.70
2019-02-02T16:19:20.282Z,54.97
2019-02-02T16:21:50.498Z,46.87
2019-02-02T16:24:20.482Z,51.80
2019-02-02T16:26:50.559Z,48.77
2019-02-02T16:29:20.603Z,49.17
2019-02-02T16:31:50.549Z,61.53
2019-02-02T16:34:20.519Z,51.10
2019-02-02T16:36:50.525Z,52.83
2019-02-02T16:39:20.534Z,57.53
2019-02-02T16:41:50.524Z,56.37
2019-02-02T16:44:20.503Z,48.43
2019-02-02T16:46:50.531Z,51.03
2019-02-02T16:49:20.617Z,55.57
2019-02-02T16:51:50.582Z,50.47
2019-02-02T16:54:20.657Z,49.90
2019-02-02T16:56:51.091Z,57.47
2019-02-02T16:59:21.226Z,51.30
2019-02-02T17:01:51.302Z,56.60
2019-02-02T17:04:21.277Z,48.77
2019-02-02T17:06:51.302Z,51.60
2019-02-02T17:09:21.342Z,50.27
2019-02-02T17:11:51.651Z,52.13
2019-02-02T17:14:21.725Z,61.20
2019-02-02T17:16:51.756Z,49.77
2019-02-02T17:19:21.720Z,53.03
2019-02-02T17:21:51.778Z,52.97
2019-02-02T17:24:21.778Z,47.97
2019-02-02T17:26:51.760Z,50.83
2019-02-02T17:29:21.720Z,49.83
2019-02-02T17:31:51.764Z,50.77
2019-02-02T17:34:27.370Z,55.13
2019-02-02T17:36:53.485Z,58.80
2019-02-02T17:39:23.468Z,54.23
2019-02-02T17:41:53.906Z,55.23
2019-02-02T17:44:23.995Z,48.10
2019-02-02T17:46:53.946Z,57.30
2019-02-02T17:49:24.000Z,51.47
2019-02-02T17:51:53.961Z,55.17
2019-02-02T17:54:24.081Z,57.50
2019-02-02T17:56:54.350Z,54.10
2019-02-02T17:59:24.503Z,54.80
2019-02-02T18:01:54.832Z,53.07
2019-02-02T18:04:26.591Z,53.23
2019-02-02T18:06:56.649Z,54.90
2019-02-02T18:09:26.708Z,52.07
2019-02-02T18:11:56.737Z,51.50
2019-02-02T18:14:26.680Z,50.60
2019-02-02T18:16:56.724Z,53.07
2019-02-02T18:19:27.678Z,51.33
2019-02-02T18:21:57.776Z,57.23
2019-02-02T18:24:27.764Z,54.47
2019-02-02T18:26:57.786Z,57.07
2019-02-02T18:29:27.837Z,53.53
2019-02-02T18:31:57.891Z,56.77
2019-02-02T18:34:30.005Z,49.63
2019-02-02T18:37:00.094Z,52.20
2019-02-02T18:39:30.059Z,50.90
2019-02-02T18:42:00.088Z,51.43
2019-02-02T18:44:30.052Z,52.53
2019-02-02T18:47:00.101Z,60.50
2019-02-02T18:49:30.118Z,56.83
2019-02-02T18:52:06.535Z,66.00
2019-02-02T18:54:36.762Z,54.63
2019-02-02T18:57:06.738Z,48.30
2019-02-02T18:59:36.723Z,57.33
2019-02-02T19:02:06.754Z,49.27
2019-02-02T19:04:36.822Z,48.80
2019-02-02T19:07:06.851Z,47.80
2019-02-02T19:09:36.847Z,50.77
2019-02-02T19:12:07.063Z,50.30
2019-02-02T19:14:37.131Z,51.83
2019-02-02T19:17:07.085Z,45.93
2019-02-02T19:19:38.146Z,50.37
2019-02-02T19:22:08.193Z,52.10
2019-02-02T19:24:38.223Z,49.33
2019-02-02T19:27:08.240Z,48.43
2019-02-02T19:29:38.290Z,53.10
2019-02-02T19:32:08.322Z,39.97
2019-02-02T19:34:38.343Z,48.27
2019-02-02T19:37:10.390Z,46.70
2019-02-02T19:39:40.431Z,60.47
2019-02-02T19:42:10.409Z,47.20
2019-02-02T19:44:40.470Z,50.57
2019-02-02T19:47:16.038Z,55.47
2019-02-02T19:49:43.463Z,55.90
2019-02-02T19:52:13.557Z,51.70
2019-02-02T19:54:44.406Z,56.57
2019-02-02T19:57:14.509Z,47.97
2019-02-02T19:59:44.578Z,51.50
2019-02-02T20:02:14.630Z,46.43
2019-02-02T20:04:44.994Z,55.87
2019-02-02T20:07:15.023Z,50.67
2019-02-02T20:09:46.049Z,47.33
2019-02-02T20:12:16.032Z,46.60
2019-02-02T20:14:46.006Z,46.23
2019-02-02T20:17:15.994Z,42.07
2019-02-02T20:19:45.950Z,43.97
2019-02-02T20:22:15.928Z,49.00
2019-02-02T20:24:46.017Z,48.77
2019-02-02T20:27:16.046Z,42.70
2019-02-02T20:29:45.989Z,48.13
2019-02-02T20:32:16.041Z,45.77
2019-02-02T20:34:46.079Z,45.27
2019-02-02T20:37:16.095Z,42.73
2019-02-02T20:39:46.037Z,39.83
2019-02-02T20:42:16.302Z,42.87
2019-02-02T20:44:46.249Z,42.50
2019-02-02T20:47:17.053Z,42.37
2019-02-02T20:49:48.948Z,52.77
2019-02-02T20:52:19.085Z,44.57
2019-02-02T20:54:49.040Z,42.63
2019-02-02T20:57:19.181Z,44.13
2019-02-02T20:59:49.174Z,51.47
2019-02-02T21:02:19.489Z,44.37
2019-02-02T21:04:49.830Z,52.13
2019-02-02T21:07:19.914Z,60.83
2019-02-02T21:09:49.968Z,42.87
2019-02-02T21:12:20.042Z,40.17
2019-02-02T21:14:50.003Z,44.38
2019-02-02T21:17:19.991Z,48.57
2019-02-02T21:19:49.949Z,56.77
2019-02-02T21:22:19.996Z,42.83
2019-02-02T21:24:49.988Z,51.03
2019-02-02T21:27:21.085Z,40.83
2019-02-02T21:29:51.194Z,38.00
2019-02-02T21:32:21.284Z,42.77
2019-02-02T21:34:52.224Z,40.97
2019-02-02T21:37:22.255Z,39.57
2019-02-02T21:39:52.320Z,41.80
2019-02-02T21:42:22.968Z,41.07
2019-02-02T21:44:52.941Z,37.23
2019-02-02T21:47:23.032Z,43.10
2019-02-02T21:49:53.115Z,38.70
2019-02-02T21:52:23.170Z,41.07
2019-02-02T21:54:53.135Z,39.40
2019-02-02T21:57:23.087Z,38.47
2019-02-02T21:59:53.408Z,41.93
2019-02-02T22:02:23.411Z,44.38
2019-02-02T22:04:53.385Z,40.77
2019-02-02T22:07:23.339Z,37.50
2019-02-02T22:09:53.323Z,33.57
2019-02-02T22:12:23.384Z,43.87
2019-02-02T22:14:53.807Z,39.03
2019-02-02T22:17:23.832Z,40.27
2019-02-02T22:19:53.882Z,39.20
2019-02-02T22:22:23.886Z,46.07
2019-02-02T22:24:53.857Z,41.10
2019-02-02T22:27:23.889Z,44.57
2019-02-02T22:29:53.931Z,35.90
2019-02-02T22:32:23.937Z,54.70
2019-02-02T22:34:54.035Z,42.07
2019-02-02T22:37:25.395Z,34.57
2019-02-02T22:39:55.374Z,52.07
2019-02-02T22:42:25.423Z,32.17
2019-02-02T22:44:55.401Z,54.87
2019-02-02T22:47:25.436Z,47.90
2019-02-02T22:49:56.290Z,39.10
2019-02-02T22:52:26.265Z,41.67
2019-02-02T22:54:56.543Z,39.30
2019-02-02T22:57:26.921Z,42.40
2019-02-02T22:59:56.914Z,47.07
2019-02-02T23:02:27.014Z,52.37
2019-02-02T23:05:00.672Z,39.70
2019-02-02T23:07:33.799Z,39.63
2019-02-02T23:10:28.944Z,39.43
2019-02-02T23:13:01.832Z,36.30
2019-02-02T23:16:06.128Z,34.13
2019-02-02T23:18:36.214Z,39.30
2019-02-02T23:21:06.733Z,37.07
2019-02-02T23:23:36.811Z,32.70
2019-02-02T23:26:06.897Z,35.47
2019-02-02T23:28:36.999Z,34.27
2019-02-02T23:31:07.012Z,38.00
2019-02-02T23:33:36.980Z,33.10
2019-02-02T23:36:07.225Z,32.43
2019-02-02T23:38:37.292Z,32.77
2019-02-02T23:41:07.343Z,32.93
2019-02-02T23:43:37.305Z,33.37
2019-02-02T23:46:07.345Z,32.67
2019-02-02T23:48:37.305Z,33.30
2019-02-02T23:51:07.367Z,34.97
2019-02-02T23:53:37.341Z,34.43
2019-02-02T23:56:07.442Z,31.53
2019-02-02T23:58:37.535Z,32.93
